Time;durP1;ratioP1;P1;durP2;ratioP2;P2;SDS_P1;SDS_P2;PMS_P1;PMS_P2;Temp;Humidity;BMP_temperature;BMP_pressure;BME280_temperature;BME280_humidity;BME280_pressure;Samples;Min_cycle;Max_cycle;Signal;HPM_P1;HPM_P2
2021/10/14 00:02:03;;;;;;;9.05;7.10;;;;;;;20.51;36.31;99317.34;1733364;81;21442;-40
2021/10/14 00:04:29;;;;;;;9.05;7.25;;;;;;;20.51;36.30;99318.67;1733067;81;21042;-40
2021/10/14 00:06:56;;;;;;;10.63;7.37;;;;;;;20.52;36.25;99322.19;1698744;81;21046;-40
2021/10/14 00:09:22;;;;;;;8.55;6.40;;;;;;;20.53;36.19;99327.91;1729720;81;22661;-41
2021/10/14 00:11:49;;;;;;;8.45;6.45;;;;;;;20.54;36.12;99328.25;1700038;81;21086;-40
2021/10/14 00:14:16;;;;;;;8.78;6.90;;;;;;;20.52;36.06;99332.38;1698635;81;21065;-40
2021/10/14 00:16:42;;;;;;;6.72;6.05;;;;;;;20.53;36.07;99337.27;1733045;81;21528;-40
2021/10/14 00:19:09;;;;;;;6.58;5.87;;;;;;;20.53;36.05;99339.94;1700655;81;20991;-40
2021/10/14 00:21:35;;;;;;;7.25;6.28;;;;;;;20.54;36.04;99341.62;1732275;81;21840;-41
2021/10/14 00:24:04;;;;;;;8.88;6.47;;;;;;;20.55;36.01;99333.98;1730304;81;21070;-41
2021/10/14 00:26:31;;;;;;;8.33;6.10;;;;;;;20.54;35.97;99342.95;1729566;81;21539;-41
2021/10/14 00:28:58;;;;;;;7.15;5.97;;;;;;;20.54;35.90;99337.14;1730499;81;21014;-40
2021/10/14 00:31:24;;;;;;;8.08;6.12;;;;;;;20.54;35.91;99338.48;1730842;81;21112;-40
2021/10/14 00:33:52;;;;;;;8.70;6.05;;;;;;;20.54;35.88;99343.83;1698618;82;21218;-43
2021/10/14 00:36:20;;;;;;;8.75;6.33;;;;;;;20.55;35.86;99354.86;1701302;81;20975;-40
2021/10/14 00:38:47;;;;;;;9.90;6.10;;;;;;;20.56;35.79;99343.22;1699182;81;20995;-40
2021/10/14 00:41:16;;;;;;;7.20;6.00;;;;;;;20.55;35.74;99355.36;1734294;81;21001;-41
2021/10/14 00:43:43;;;;;;;6.90;5.92;;;;;;;20.55;35.71;99357.53;1732378;81;21041;-43
2021/10/14 00:46:16;;;;;;;7.37;5.50;;;;;;;20.54;35.68;99352.31;1720509;81;21100;-40
2021/10/14 00:48:42;;;;;;;6.40;5.80;;;;;;;20.55;35.66;99351.34;1700953;81;21661;-40
2021/10/14 00:51:10;;;;;;;6.87;5.45;;;;;;;20.55;35.62;99362.04;1728423;81;21066;-39
2021/10/14 00:53:41;;;;;;;7.62;5.60;;;;;;;20.55;35.60;99355.36;1698179;81;21093;-41
2021/10/14 00:56:08;;;;;;;6.72;5.78;;;;;;;20.53;35.50;99350.63;1732310;81;21559;-40
2021/10/14 00:58:36;;;;;;;7.95;5.70;;;;;;;20.50;35.54;99357.05;1724725;81;21109;-40
2021/10/14 01:01:03;;;;;;;5.97;5.17;;;;;;;20.49;35.55;99355.33;1731311;81;21025;-40
2021/10/14 01:03:31;;;;;;;6.00;5.40;;;;;;;20.48;35.52;99356.82;1732217;81;21714;-40
2021/10/14 01:05:57;;;;;;;6.65;5.60;;;;;;;20.49;35.52;99365.19;1730669;81;21053;-40
2021/10/14 01:08:24;;;;;;;6.33;5.05;;;;;;;20.49;35.48;99363.84;1699072;81;21019;-40
2021/10/14 01:10:53;;;;;;;6.45;5.50;;;;;;;20.49;35.45;99357.17;1733327;81;21084;-40
2021/10/14 01:13:20;;;;;;;5.62;4.83;;;;;;;20.49;35.42;99369.19;1730142;81;21037;-41
2021/10/14 01:15:47;;;;;;;6.03;5.10;;;;;;;20.48;35.37;99366.17;1730951;81;21025;-40
2021/10/14 01:18:14;;;;;;;5.70;5.05;;;;;;;20.48;35.36;99372.36;1699605;81;22355;-41
2021/10/14 01:20:40;;;;;;;6.55;4.80;;;;;;;20.49;35.35;99378.55;1699413;81;21125;-39
2021/10/14 01:23:07;;;;;;;6.03;5.20;;;;;;;20.50;35.30;99381.59;1704517;81;21182;-40
2021/10/14 01:25:34;;;;;;;7.80;4.72;;;;;;;20.49;35.28;99387.41;1730844;81;21013;-41
2021/10/14 01:28:00;;;;;;;7.17;4.80;;;;;;;20.50;35.25;99385.61;1731194;81;21047;-40
2021/10/14 01:30:27;;;;;;;5.80;4.95;;;;;;;20.49;35.24;99388.74;1731291;81;21131;-40
2021/10/14 01:32:53;;;;;;;5.83;4.58;;;;;;;20.50;35.22;99390.95;1730783;81;21057;-40
2021/10/14 01:35:20;;;;;;;6.72;4.65;;;;;;;20.50;35.22;99400.30;1698587;81;21081;-43
2021/10/14 01:37:47;;;;;;;5.20;4.72;;;;;;;20.50;35.18;99397.14;1734363;81;21117;-40
2021/10/14 01:40:13;;;;;;;5.05;4.53;;;;;;;20.50;35.16;99401.64;1731141;81;21005;-40
2021/10/14 01:42:39;;;;;;;6.62;4.60;;;;;;;20.51;35.14;99399.31;1730093;81;20986;-39
2021/10/14 01:45:09;;;;;;;6.00;4.55;;;;;;;20.51;35.11;99407.33;1732740;81;21103;-41
2021/10/14 01:47:35;;;;;;;6.12;4.30;;;;;;;20.51;35.07;99411.34;1731840;81;21109;-40
2021/10/14 01:50:04;;;;;;;5.22;4.62;;;;;;;20.51;35.09;99416.23;1731051;81;21073;-40
2021/10/14 01:52:31;;;;;;;4.40;4.00;;;;;;;20.52;35.11;99421.08;1727370;81;21628;-41
2021/10/14 01:54:58;;;;;;;4.65;4.20;;;;;;;20.52;35.07;99413.05;1731271;81;22325;-40
2021/10/14 01:57:24;;;;;;;4.22;3.83;;;;;;;20.53;35.06;99409.42;1699122;82;21057;-40
2021/10/14 01:59:50;;;;;;;4.80;4.33;;;;;;;20.54;35.05;99416.45;1729737;81;22128;-41
2021/10/14 02:02:18;;;;;;;4.92;4.42;;;;;;;20.54;35.04;99422.67;1730389;81;21272;-41
2021/10/14 02:04:44;;;;;;;4.60;4.17;;;;;;;20.56;35.04;99429.20;1728085;81;21531;-40
2021/10/14 02:07:11;;;;;;;6.05;3.87;;;;;;;20.57;35.00;99426.91;1733332;81;21029;-40
2021/10/14 02:09:37;;;;;;;4.78;4.22;;;;;;;20.58;35.03;99433.98;1699335;81;21042;-43
2021/10/14 02:12:04;;;;;;;4.67;4.20;;;;;;;20.58;35.06;99438.83;1734133;81;21144;-40
2021/10/14 02:14:31;;;;;;;4.62;4.15;;;;;;;20.62;35.07;99439.93;1723634;81;21152;-40
2021/10/14 02:16:58;;;;;;;4.37;3.98;;;;;;;20.61;35.11;99429.73;1731288;81;21109;-41
2021/10/14 02:19:25;;;;;;;4.22;3.83;;;;;;;20.63;35.20;99437.17;1699745;81;21156;-41
2021/10/14 02:21:52;;;;;;;4.83;4.20;;;;;;;20.63;35.22;99438.51;1699929;81;21617;-40
2021/10/14 02:24:18;;;;;;;4.12;3.72;;;;;;;20.65;35.26;99441.91;1729696;81;21087;-40
2021/10/14 02:26:45;;;;;;;4.15;3.55;;;;;;;20.67;35.28;99445.80;1730051;81;22186;-40
2021/10/14 02:29:14;;;;;;;4.20;3.72;;;;;;;20.68;35.26;99444.81;1732225;81;21591;-42
2021/10/14 02:31:41;;;;;;;4.22;3.83;;;;;;;20.69;35.29;99450.53;1730125;81;21081;-40
2021/10/14 02:34:08;;;;;;;4.78;4.15;;;;;;;20.70;35.30;99454.43;1731331;81;21025;-41
2021/10/14 02:36:35;;;;;;;9.38;4.92;;;;;;;20.70;35.30;99454.43;1731204;81;21201;-40
2021/10/14 02:39:03;;;;;;;5.35;4.55;;;;;;;20.72;35.32;99465.84;1699044;81;21128;-40
2021/10/14 02:41:31;;;;;;;4.85;3.67;;;;;;;20.73;35.42;99474.25;1730244;81;21066;-40
2021/10/14 02:43:59;;;;;;;3.95;3.62;;;;;;;20.74;35.42;99479.95;1699927;81;21583;-43
2021/10/14 02:46:28;;;;;;;4.55;3.90;;;;;;;20.74;35.47;99477.27;1732081;81;21215;-40
2021/10/14 02:48:54;;;;;;;4.80;4.28;;;;;;;20.76;35.90;99481.16;1730726;81;21591;-45
2021/10/14 02:51:21;;;;;;;4.53;4.12;;;;;;;20.76;36.22;99480.70;1720137;81;21096;-43
2021/10/14 02:53:48;;;;;;;10.48;4.70;;;;;;;20.76;36.58;99479.36;1725916;81;22223;-43
2021/10/14 02:56:14;;;;;;;5.10;4.25;;;;;;;20.76;36.67;99483.37;1692192;82;21048;-42
2021/10/14 02:58:41;;;;;;;7.72;4.42;;;;;;;20.77;36.68;99479.71;1689808;81;21682;-43
2021/10/14 03:01:10;;;;;;;60.48;18.65;;;;;;;20.78;36.66;99485.44;1703425;82;21073;-43
2021/10/14 03:03:36;;;;;;;33.83;9.95;;;;;;;20.79;36.51;99487.62;1696047;81;21439;-43
2021/10/14 03:06:03;;;;;;;16.62;7.95;;;;;;;20.76;36.17;99487.84;1702130;81;21133;-42
2021/10/14 03:08:30;;;;;;;18.20;8.05;;;;;;;20.74;36.54;99486.62;1730573;81;21069;-42
2021/10/14 03:10:56;;;;;;;15.53;6.72;;;;;;;20.76;36.75;99490.06;1729821;81;20974;-43
2021/10/14 03:13:23;;;;;;;16.48;6.92;;;;;;;20.77;36.90;99490.41;1702243;81;22602;-42
2021/10/14 03:15:50;;;;;;;16.67;6.45;;;;;;;20.78;37.03;99489.45;1730384;81;21011;-42
2021/10/14 03:18:16;;;;;;;12.25;6.35;;;;;;;20.80;37.12;99493.84;1730849;81;21080;-42
2021/10/14 03:20:43;;;;;;;12.07;6.22;;;;;;;20.84;37.21;99500.64;1728018;81;21035;-42
2021/10/14 03:23:10;;;;;;;10.00;5.90;;;;;;;20.85;37.28;99501.02;1728519;81;21460;-43
2021/10/14 03:25:36;;;;;;;10.55;6.00;;;;;;;20.87;37.40;99500.41;1730180;81;21102;-42
2021/10/14 03:28:04;;;;;;;11.80;6.60;;;;;;;20.90;37.45;99505.52;1729600;81;22203;-42
2021/10/14 03:30:30;;;;;;;8.05;6.05;;;;;;;20.91;37.57;99505.87;1704522;81;20990;-43
2021/10/14 03:32:56;;;;;;;12.43;5.72;;;;;;;20.93;37.62;99509.27;1730115;81;21112;-42
2021/10/14 03:35:24;;;;;;;10.32;5.42;;;;;;;20.94;37.67;99502.95;1730484;81;21076;-42
2021/10/14 03:37:52;;;;;;;11.55;6.00;;;;;;;20.96;37.75;99503.69;1730194;81;21049;-44
2021/10/14 03:40:18;;;;;;;9.60;5.62;;;;;;;20.97;37.82;99512.08;1730462;81;21109;-42
2021/10/14 03:42:45;;;;;;;10.32;5.95;;;;;;;20.98;37.86;99505.78;1731033;81;21105;-42
2021/10/14 03:45:11;;;;;;;10.35;6.03;;;;;;;21.00;37.89;99513.19;1727967;81;21472;-42
2021/10/14 03:47:37;;;;;;;7.78;5.50;;;;;;;21.00;37.94;99509.17;1701461;82;21029;-43
2021/10/14 03:50:05;;;;;;;7.67;5.58;;;;;;;21.02;37.96;99517.92;1718632;82;21041;-42
2021/10/14 03:52:32;;;;;;;7.03;5.12;;;;;;;21.02;38.03;99509.06;1694470;82;21498;-41
2021/10/14 03:54:58;;;;;;;7.00;5.03;;;;;;;21.03;38.10;99521.44;1721535;82;21122;-43
2021/10/14 03:57:26;;;;;;;8.93;5.05;;;;;;;21.04;38.15;99524.00;1692424;82;21074;-45
2021/10/14 03:59:53;;;;;;;7.65;5.37;;;;;;;21.05;38.22;99527.05;1719515;82;21620;-42
2021/10/14 04:02:20;;;;;;;7.12;4.90;;;;;;;21.05;38.24;99531.06;1719229;81;21126;-42
2021/10/14 04:04:46;;;;;;;8.13;5.03;;;;;;;21.06;38.32;99538.09;1715221;82;21035;-42
2021/10/14 04:07:13;;;;;;;8.95;4.60;;;;;;;21.06;38.37;99538.09;1691118;82;21072;-42
2021/10/14 04:09:39;;;;;;;5.97;4.87;;;;;;;21.08;38.39;99540.20;1720364;81;21069;-43
2021/10/14 04:12:06;;;;;;;6.97;4.78;;;;;;;21.09;38.43;99539.20;1723281;81;21044;-42
2021/10/14 04:14:32;;;;;;;6.85;4.90;;;;;;;21.10;38.47;99548.95;1691133;82;21032;-41
2021/10/14 04:16:59;;;;;;;9.13;4.58;;;;;;;21.11;38.50;99549.29;1678084;82;21037;-42
2021/10/14 04:19:26;;;;;;;6.55;4.87;;;;;;;21.12;38.52;99552.34;1721839;81;21061;-42
2021/10/14 04:21:53;;;;;;;6.12;4.90;;;;;;;21.12;38.55;99548.33;1736958;81;21582;-42
2021/10/14 04:24:19;;;;;;;6.45;4.65;;;;;;;21.13;38.54;99550.05;1715647;82;21049;-42
2021/10/14 04:26:46;;;;;;;6.37;4.35;;;;;;;21.14;38.55;99548.22;1744511;81;21123;-43
2021/10/14 04:29:12;;;;;;;6.10;4.47;;;;;;;21.13;38.61;99544.70;1753790;81;21025;-42
2021/10/14 04:31:40;;;;;;;5.55;4.85;;;;;;;21.17;38.61;99557.84;1714454;82;21051;-43
2021/10/14 04:34:07;;;;;;;5.62;4.75;;;;;;;21.15;38.64;99557.46;1748405;81;21051;-42
2021/10/14 04:36:37;;;;;;;4.75;4.20;;;;;;;21.17;38.66;99561.36;1732144;81;21105;-41
2021/10/14 04:39:06;;;;;;;5.17;4.50;;;;;;;21.18;38.73;99566.22;1747469;81;21120;-41
2021/10/14 04:41:33;;;;;;;5.53;4.55;;;;;;;21.19;38.73;99569.27;1706344;81;21023;-43
2021/10/14 04:43:59;;;;;;;6.22;4.40;;;;;;;21.20;38.76;99576.30;1753750;81;21518;-42
2021/10/14 04:46:26;;;;;;;4.72;4.28;;;;;;;21.20;38.77;99578.98;1735741;81;21493;-42
2021/10/14 04:48:54;;;;;;;4.50;4.10;;;;;;;21.22;38.76;99586.42;1747986;81;20992;-43
2021/10/14 04:51:20;;;;;;;5.58;4.40;;;;;;;21.23;38.82;99590.79;1738719;81;22139;-41
2021/10/14 04:53:47;;;;;;;8.08;4.45;;;;;;;21.23;38.82;99594.80;1754373;81;21039;-41
2021/10/14 04:56:14;;;;;;;4.83;4.20;;;;;;;21.24;38.88;99601.88;1733086;81;21050;-41
2021/10/14 04:58:40;;;;;;;4.30;3.90;;;;;;;21.23;38.89;99602.37;1719551;81;21349;-42
2021/10/14 05:01:07;;;;;;;4.15;3.85;;;;;;;21.24;38.92;99601.88;1742035;81;21046;-41
2021/10/14 05:03:33;;;;;;;4.40;4.00;;;;;;;21.25;38.93;99604.43;1736372;81;21106;-41
2021/10/14 05:05:59;;;;;;;4.45;4.05;;;;;;;21.27;38.98;99612.34;1746152;81;21053;-41
2021/10/14 05:08:25;;;;;;;5.67;4.60;;;;;;;21.28;38.97;99614.03;1746788;81;21043;-41
2021/10/14 05:10:52;;;;;;;5.12;4.42;;;;;;;21.28;38.99;99620.25;1704562;82;21094;-42
2021/10/14 05:13:18;;;;;;;10.43;4.12;;;;;;;21.29;38.98;99623.27;1743739;81;21087;-42
2021/10/14 05:15:45;;;;;;;9.05;4.10;;;;;;;21.31;38.97;99627.17;1738088;81;21145;-41
2021/10/14 05:18:12;;;;;;;3.90;3.60;;;;;;;21.31;39.14;99619.98;1732419;81;21434;-42
2021/10/14 05:20:39;;;;;;;8.88;6.08;;;;;;;21.32;39.46;99620.86;1730370;81;21021;-42
2021/10/14 05:23:05;;;;;;;8.08;5.92;;;;;;;21.28;38.15;99624.73;1720315;81;21626;-43
2021/10/14 05:25:32;;;;;;;8.40;5.03;;;;;;;21.15;37.39;99632.88;1743590;81;22179;-43
2021/10/14 05:27:58;;;;;;;6.08;5.00;;;;;;;20.98;37.05;99634.17;1747423;81;21561;-44
2021/10/14 05:30:25;;;;;;;6.15;5.12;;;;;;;20.79;36.93;99634.69;1731704;81;21039;-42
2021/10/14 05:32:52;;;;;;;6.58;5.30;;;;;;;20.62;36.71;99637.75;1702621;82;21070;-41
2021/10/14 05:35:18;;;;;;;12.47;6.25;;;;;;;20.45;36.43;99643.01;1717621;81;21149;-44
2021/10/14 05:37:46;;;;;;;7.60;5.20;;;;;;;20.32;36.14;99651.91;1738399;81;21145;-43
2021/10/14 05:40:12;;;;;;;6.15;5.55;;;;;;;20.17;36.19;99651.23;1730551;81;21064;-42
2021/10/14 05:42:39;;;;;;;6.78;6.03;;;;;;;20.03;35.88;99662.88;1732646;81;21073;-42
2021/10/14 05:45:07;;;;;;;6.87;6.03;;;;;;;19.92;36.04;99664.16;1701561;81;21034;-44
2021/10/14 05:47:36;;;;;;;6.10;5.58;;;;;;;19.83;36.23;99667.47;1731118;81;21037;-44
2021/10/14 05:50:05;;;;;;;6.87;5.92;;;;;;;19.72;36.23;99664.66;1731028;81;21030;-42
2021/10/14 05:52:31;;;;;;;7.97;6.37;;;;;;;19.65;36.34;99669.57;1730923;81;21114;-43
2021/10/14 05:54:59;;;;;;;7.12;6.40;;;;;;;19.61;35.92;99666.27;1729856;81;21511;-43
2021/10/14 05:57:26;;;;;;;8.23;7.40;;;;;;;19.55;35.90;99673.39;1699369;81;21018;-43
2021/10/14 05:59:52;;;;;;;7.37;6.58;;;;;;;19.48;35.61;99673.41;1728245;81;21128;-43
2021/10/14 06:02:19;;;;;;;8.08;6.55;;;;;;;19.43;35.63;99672.87;1726985;81;21101;-43
2021/10/14 06:04:47;;;;;;;9.08;6.22;;;;;;;19.37;35.90;99673.32;1726857;81;21734;-42
2021/10/14 06:07:14;;;;;;;9.80;7.15;;;;;;;19.35;36.07;99679.22;1728645;81;21058;-42
2021/10/14 06:09:40;;;;;;;8.70;6.45;;;;;;;19.33;35.89;99683.33;1728929;81;21046;-42
2021/10/14 06:12:07;;;;;;;9.65;7.03;;;;;;;19.31;35.66;99687.42;1729311;81;21489;-40
2021/10/14 06:14:33;;;;;;;19.98;11.73;;;;;;;19.26;35.61;99689.55;1731351;81;21504;-42
2021/10/14 06:16:59;;;;;;;20.95;12.05;;;;;;;19.22;35.77;99686.73;1723185;81;21157;-42
2021/10/14 06:19:26;;;;;;;17.87;10.28;;;;;;;19.16;35.55;99692.47;1726286;81;21546;-43
2021/10/14 06:21:53;;;;;;;15.00;9.18;;;;;;;19.06;35.43;99692.27;1732271;81;21022;-42
2021/10/14 06:24:19;;;;;;;14.78;9.50;;;;;;;18.98;36.95;99703.92;1736374;81;21035;-42
2021/10/14 06:26:48;;;;;;;15.93;8.73;;;;;;;18.91;37.31;99706.59;1734754;81;21609;-42
2021/10/14 06:29:14;;;;;;;11.30;7.97;;;;;;;18.85;37.46;99707.86;1731462;81;21157;-40
2021/10/14 06:31:41;;;;;;;13.72;7.20;;;;;;;18.84;38.66;99715.47;1702493;81;20966;-42
2021/10/14 06:34:07;;;;;;;10.13;6.62;;;;;;;18.92;39.29;99717.16;1719128;81;21752;-42
2021/10/14 06:36:33;;;;;;;12.18;6.70;;;;;;;19.05;40.38;99721.20;1722603;81;21151;-39
2021/10/14 06:39:00;;;;;;;9.95;5.58;;;;;;;19.21;40.67;99722.36;1717395;82;20996;-41
2021/10/14 06:41:27;;;;;;;14.85;6.12;;;;;;;19.38;40.68;99725.70;1720539;81;21819;-42
2021/10/14 06:43:55;;;;;;;12.98;6.33;;;;;;;19.54;40.53;99718.86;1732469;81;21101;-40
2021/10/14 06:46:22;;;;;;;12.60;6.80;;;;;;;19.66;40.43;99724.67;1748665;81;21084;-40
2021/10/14 06:48:48;;;;;;;11.60;6.08;;;;;;;19.79;40.31;99726.06;1697957;82;21021;-40
2021/10/14 06:51:15;;;;;;;14.98;6.37;;;;;;;19.90;40.29;99727.47;1706537;82;21696;-41
2021/10/14 06:53:41;;;;;;;7.95;5.42;;;;;;;20.00;40.12;99723.19;1704197;81;21047;-40
2021/10/14 06:56:07;;;;;;;10.72;5.70;;;;;;;20.11;39.99;99726.95;1722673;81;21081;-40
2021/10/14 06:58:34;;;;;;;6.58;5.53;;;;;;;20.19;39.86;99727.23;1740877;81;21053;-40
2021/10/14 07:01:00;;;;;;;6.58;5.28;;;;;;;20.26;39.82;99731.20;1753550;81;21031;-40
2021/10/14 07:03:27;;;;;;;8.35;5.67;;;;;;;20.34;39.68;99734.17;1721024;81;21091;-40
2021/10/14 07:05:53;;;;;;;7.78;5.10;;;;;;;20.39;39.52;99731.15;1719505;81;21215;-40
2021/10/14 07:08:19;;;;;;;7.75;6.00;;;;;;;20.45;39.49;99733.87;1743586;81;21053;-41
2021/10/14 07:10:46;;;;;;;8.10;5.37;;;;;;;20.50;39.38;99742.42;1732762;81;21134;-40
2021/10/14 07:13:14;;;;;;;9.08;5.12;;;;;;;20.55;39.40;99740.27;1739017;81;22316;-41
2021/10/14 07:15:40;;;;;;;634.17;506.93;;;;;;;20.59;39.34;99748.42;1739322;81;21092;-40
2021/10/14 07:18:08;;;;;;;455.25;371.68;;;;;;;20.55;35.68;99756.30;1729602;81;21142;-41
2021/10/14 07:20:36;;;;;;;260.90;207.43;;;;;;;20.27;36.81;99751.59;1743391;81;21002;-41
2021/10/14 07:23:10;;;;;;;260.30;209.40;;;;;;;20.14;37.42;99748.95;1719896;81;21065;-41
2021/10/14 07:25:38;;;;;;;264.10;207.07;;;;;;;20.14;37.97;99753.42;1709180;82;21585;-40
2021/10/14 07:28:05;;;;;;;252.40;200.50;;;;;;;20.18;38.25;99749.09;1717522;82;21074;-39
2021/10/14 07:30:33;;;;;;;238.07;187.77;;;;;;;20.25;38.50;99746.84;1709221;81;21770;-40
2021/10/14 07:33:03;;;;;;;227.95;177.12;;;;;;;20.32;38.58;99745.43;1707193;82;22015;-40
2021/10/14 07:35:28;;;;;;;220.70;169.77;;;;;;;20.43;38.58;99741.16;1730158;81;21125;-41
2021/10/14 07:37:54;;;;;;;205.70;158.10;;;;;;;20.49;38.58;99746.89;1729795;81;21110;-40
2021/10/14 07:40:22;;;;;;;194.67;148.00;;;;;;;20.55;38.55;99750.46;1697164;82;21066;-39
2021/10/14 07:42:49;;;;;;;154.47;116.62;;;;;;;20.65;38.59;99748.02;1731224;81;21121;-40
2021/10/14 07:45:16;;;;;;;112.28;87.45;;;;;;;20.73;38.30;99748.31;1735915;81;21018;-39
2021/10/14 07:47:42;;;;;;;83.70;62.30;;;;;;;20.80;39.59;99749.20;1733244;81;21046;-40
2021/10/14 07:50:10;;;;;;;81.70;60.95;;;;;;;20.85;39.32;99748.38;1730939;81;21050;-41
2021/10/14 07:52:36;;;;;;;80.00;60.48;;;;;;;20.83;37.99;99761.87;1707818;81;21506;-40
2021/10/14 07:55:04;;;;;;;56.48;44.33;;;;;;;20.75;37.91;99757.56;1736575;81;21826;-41
2021/10/14 07:57:30;;;;;;;60.12;45.20;;;;;;;20.67;37.48;99762.12;1726632;81;21055;-40
2021/10/14 07:59:58;;;;;;;50.12;37.98;;;;;;;20.58;37.65;99762.77;1721821;81;21037;-41
2021/10/14 08:02:25;;;;;;;49.33;38.23;;;;;;;20.51;37.73;99765.03;1733026;81;21059;-41
2021/10/14 08:04:53;;;;;;;51.30;35.00;;;;;;;20.50;37.86;99768.66;1727648;81;21093;-41
2021/10/14 08:07:19;;;;;;;38.50;27.75;;;;;;;20.48;37.31;99765.73;1728271;81;21119;-41
2021/10/14 08:09:45;;;;;;;40.65;24.43;;;;;;;20.46;36.72;99771.65;1718483;81;21139;-40
2021/10/14 08:12:12;;;;;;;25.57;19.73;;;;;;;20.43;36.33;99770.56;1725917;81;21642;-40
2021/10/14 08:14:38;;;;;;;28.80;21.37;;;;;;;20.38;36.44;99773.06;1687722;82;21071;-40
2021/10/14 08:17:06;;;;;;;26.87;20.30;;;;;;;20.37;36.80;99770.50;1686391;84;21007;-40
2021/10/14 08:19:32;;;;;;;29.48;20.00;;;;;;;20.34;36.73;99774.26;1739525;81;21131;-41
2021/10/14 08:21:59;;;;;;;24.18;18.32;;;;;;;20.33;36.95;99783.23;1736996;81;21035;-41
2021/10/14 08:24:26;;;;;;;23.40;15.88;;;;;;;20.33;36.95;99779.22;1736734;81;21065;-41
2021/10/14 08:26:54;;;;;;;21.35;15.32;;;;;;;20.33;36.97;99777.88;1665223;85;21053;-40
2021/10/14 08:29:21;;;;;;;25.52;16.30;;;;;;;20.36;36.92;99776.83;1728918;81;21070;-40
2021/10/14 08:31:48;;;;;;;23.85;17.27;;;;;;;20.39;37.50;99775.23;1703140;82;21070;-40
2021/10/14 08:34:14;;;;;;;23.87;16.30;;;;;;;20.47;37.96;99780.05;1691357;83;21123;-40
2021/10/14 08:36:43;;;;;;;18.77;15.32;;;;;;;20.55;38.11;99779.87;1697827;81;21595;-41
2021/10/14 08:39:09;;;;;;;24.15;15.53;;;;;;;20.66;38.12;99781.81;1727962;81;21132;-40
2021/10/14 08:41:36;;;;;;;20.88;14.80;;;;;;;20.77;38.12;99786.38;1703582;82;21108;-40
2021/10/14 08:44:04;;;;;;;20.72;14.53;;;;;;;20.88;38.15;99782.90;1719421;82;21097;-39
2021/10/14 08:46:32;;;;;;;19.30;14.33;;;;;;;20.97;38.05;99786.25;1698890;81;21183;-39
2021/10/14 08:48:59;;;;;;;16.45;13.95;;;;;;;21.05;38.07;99786.54;1723972;81;21036;-40
2021/10/14 08:51:28;;;;;;;19.35;13.15;;;;;;;21.13;38.04;99793.52;1712078;82;21051;-40
2021/10/14 08:53:55;;;;;;;18.10;12.90;;;;;;;21.21;37.76;99791.59;1712888;82;21165;-40
2021/10/14 08:56:21;;;;;;;16.48;13.28;;;;;;;21.25;37.67;99778.38;1710794;82;21793;-41
2021/10/14 08:58:48;;;;;;;17.20;13.43;;;;;;;21.32;37.83;99786.80;1721291;82;21036;-40
2021/10/14 09:01:15;;;;;;;16.70;11.55;;;;;;;21.37;37.93;99787.77;1733890;81;21091;-41
2021/10/14 09:03:48;;;;;;;15.08;11.50;;;;;;;21.43;38.09;99792.66;1728602;82;21057;-42
2021/10/14 09:06:14;;;;;;;15.83;11.20;;;;;;;21.48;38.14;99787.84;1729715;81;21043;-41
2021/10/14 09:08:45;;;;;;;15.08;11.18;;;;;;;21.55;38.08;99797.60;1726281;81;22139;-42
2021/10/14 09:11:23;;;;;;;13.28;10.13;;;;;;;21.60;38.07;99792.75;1724722;81;21062;-41
2021/10/14 09:13:54;;;;;;;14.47;10.58;;;;;;;21.64;37.93;99791.56;1731684;81;32636;-41
2021/10/14 09:16:31;;;;;;;11.48;10.10;;;;;;;21.69;37.86;99796.92;1734105;81;21891;-41
2021/10/14 09:19:20;;;;;;;12.68;10.13;;;;;;;21.74;37.94;99796.58;1744180;81;21094;-42
2021/10/14 09:21:50;;;;;;;13.18;9.90;;;;;;;21.78;37.99;99798.04;1727971;81;21576;-41
2021/10/14 09:24:37;;;;;;;14.85;9.78;;;;;;;21.81;38.08;99796.47;1730568;81;20998;-41
2021/10/14 09:27:09;;;;;;;10.03;8.73;;;;;;;21.85;38.09;99805.96;1732986;81;21062;-42
2021/10/14 09:29:37;;;;;;;16.93;9.10;;;;;;;21.89;37.89;99808.78;1752958;81;21443;-41
2021/10/14 09:32:06;;;;;;;11.65;9.23;;;;;;;21.94;37.83;99806.22;1739809;81;21769;-42
2021/10/14 09:34:43;;;;;;;11.75;8.43;;;;;;;21.97;37.88;99803.31;1749198;81;21069;-40
2021/10/14 09:37:22;;;;;;;11.60;8.85;;;;;;;22.01;37.86;99807.48;1736137;81;21513;-42
2021/10/14 09:40:07;;;;;;;12.33;9.25;;;;;;;22.04;37.98;99799.17;1725032;81;21053;-42
2021/10/14 09:42:55;;;;;;;;;;;;;;;22.09;37.94;99805.06;1736681;81;21100;-41
2021/10/14 09:45:26;;;;;;;17.87;10.63;;;;;;;22.10;35.58;99801.38;1732181;81;20152;-39
2021/10/14 09:48:08;;;;;;;14.35;8.95;;;;;;;21.93;33.37;99802.70;1734505;81;21120;-40
2021/10/14 09:50:42;;;;;;;13.60;8.45;;;;;;;21.70;33.00;99815.17;1726305;81;21088;-39
2021/10/14 09:53:18;;;;;;;13.98;7.87;;;;;;;21.47;32.63;99807.58;1723587;81;21066;-39
2021/10/14 09:55:45;;;;;;;10.60;7.60;;;;;;;21.27;33.26;99810.37;1725413;81;21439;-40
2021/10/14 09:58:12;;;;;;;10.75;7.58;;;;;;;21.14;33.10;99815.27;1722447;81;21045;-39
2021/10/14 10:00:39;;;;;;;10.28;7.05;;;;;;;21.02;33.05;99814.85;1677879;81;21103;-39
2021/10/14 10:03:08;;;;;;;21.30;8.05;;;;;;;20.89;33.30;99816.71;1732310;81;21455;-40
2021/10/14 10:05:35;;;;;;;10.03;7.05;;;;;;;20.78;33.33;99817.02;1746868;81;21011;-40
2021/10/14 10:08:04;;;;;;;9.68;7.28;;;;;;;20.69;33.31;99821.67;1738238;81;21065;-39
2021/10/14 10:10:30;;;;;;;7.92;6.47;;;;;;;20.63;33.57;99818.58;1732645;81;22050;-40
2021/10/14 10:13:00;;;;;;;10.03;6.42;;;;;;;20.55;34.17;99817.29;1744520;81;20991;-40
2021/10/14 10:15:49;;;;;;;11.25;6.40;;;;;;;20.58;35.44;99822.91;1736428;81;21066;-39
2021/10/14 10:18:37;;;;;;;9.35;6.22;;;;;;;20.70;36.04;99834.09;1734550;81;21030;-39
2021/10/14 10:21:04;;;;;;;8.50;5.72;;;;;;;20.85;36.21;99835.30;1729093;81;21690;-39
2021/10/14 10:23:46;;;;;;;6.47;5.67;;;;;;;20.96;36.35;99836.69;1732701;81;22195;-39
2021/10/14 10:26:38;;;;;;;10.48;6.08;;;;;;;21.07;36.46;99842.13;1733961;81;21758;-40
2021/10/14 10:29:17;;;;;;;8.98;6.67;;;;;;;21.20;36.46;99843.88;1733375;81;21045;-41
2021/10/14 10:31:55;;;;;;;8.13;5.75;;;;;;;21.27;35.54;99838.47;1725525;81;21044;-40
2021/10/14 10:37:37;;;;;;;114.80;65.60;;;;;;;21.41;35.88;99854.34;1730336;81;21575;-42
2021/10/14 10:40:16;;;;;;;27.22;16.42;;;;;;;21.48;35.35;99842.72;1703405;82;21057;-42
2021/10/14 10:42:52;;;;;;;21.60;12.82;;;;;;;21.48;34.85;99843.57;1732105;81;21642;-42
2021/10/14 10:45:24;;;;;;;20.70;11.48;;;;;;;21.38;34.39;99840.34;1734648;81;21061;-41
2021/10/14 10:48:01;;;;;;;18.02;10.40;;;;;;;21.25;33.48;99848.41;1733147;81;21054;-42
2021/10/14 10:50:36;;;;;;;14.87;9.50;;;;;;;21.07;33.00;99850.14;1729829;81;21111;-41
2021/10/14 10:53:22;;;;;;;13.98;9.05;;;;;;;20.87;33.68;99849.41;1735396;81;22342;-40
2021/10/14 10:55:56;;;;;;;14.63;9.08;;;;;;;20.71;34.10;99849.18;1734055;81;21093;-41
2021/10/14 10:58:38;;;;;;;15.68;8.45;;;;;;;20.71;35.54;99847.84;1731836;81;21077;-41
2021/10/14 11:01:04;;;;;;;13.58;7.90;;;;;;;20.84;36.07;99853.14;1733532;81;21096;-40
2021/10/14 11:03:30;;;;;;;14.58;8.48;;;;;;;21.01;36.20;99853.26;1734163;81;21037;-40
2021/10/14 11:06:00;;;;;;;12.07;8.03;;;;;;;21.17;36.23;99857.52;1734336;81;21206;-40
2021/10/14 11:08:32;;;;;;;13.18;7.75;;;;;;;21.29;36.27;99859.28;1700697;83;21063;-40
2021/10/14 11:11:04;;;;;;;12.47;7.95;;;;;;;21.42;36.31;99860.57;1702880;82;21131;-41
2021/10/14 11:13:33;;;;;;;14.23;7.33;;;;;;;21.54;36.35;99862.85;1724637;81;21080;-40
2021/10/14 11:15:59;;;;;;;13.65;6.67;;;;;;;21.64;36.29;99854.49;1702494;83;21040;-42
2021/10/14 11:18:27;;;;;;;12.13;7.47;;;;;;;21.74;36.29;99862.20;1726041;81;21401;-42
2021/10/14 11:20:58;;;;;;;10.00;6.53;;;;;;;21.80;36.32;99865.73;1726526;81;21099;-41
2021/10/14 11:23:37;;;;;;;15.58;7.25;;;;;;;21.87;36.34;99860.30;1702279;81;21038;-40
2021/10/14 11:26:07;;;;;;;9.10;6.15;;;;;;;21.96;36.30;99865.92;1726902;81;21299;-41
2021/10/14 11:28:58;;;;;;;11.40;6.83;;;;;;;22.02;36.28;99862.75;1730749;81;21026;-42
2021/10/14 11:31:36;;;;;;;10.28;6.87;;;;;;;22.09;36.26;99866.69;1708225;81;21125;-41
2021/10/14 11:34:05;;;;;;;11.08;6.35;;;;;;;22.15;36.22;99868.88;1701354;81;21308;-40
2021/10/14 11:36:31;;;;;;;8.83;6.33;;;;;;;22.20;36.26;99868.53;1726117;81;21060;-40